createdAt,value
2018-07-22T04:02:11.143Z,18.93
2018-07-22T04:04:44.412Z,8.97
2018-07-22T04:07:16.911Z,8.43
2018-07-22T04:10:01.908Z,12.17
2018-07-22T04:12:32.871Z,12.20
2018-07-22T04:15:05.652Z,12.17
2018-07-22T04:17:36.041Z,11.43
2018-07-22T04:20:09.362Z,10.77
2018-07-22T04:22:40.477Z,14.63
2018-07-22T04:25:11.361Z,10.47
2018-07-22T04:27:43.009Z,9.20
2018-07-22T04:30:12.406Z,9.13
2018-07-22T04:32:42.854Z,9.50
2018-07-22T04:35:14.294Z,10.50
2018-07-22T04:37:43.745Z,9.60
2018-07-22T04:40:14.713Z,8.00
2018-07-22T04:42:45.275Z,8.90
2018-07-22T04:45:16.010Z,10.10
2018-07-22T04:47:46.225Z,8.83
2018-07-22T04:50:15.799Z,15.23
2018-07-22T04:52:47.052Z,10.20
2018-07-22T04:55:18.024Z,11.77
2018-07-22T04:57:49.132Z,11.87
2018-07-22T05:00:19.588Z,10.63
2018-07-22T05:02:50.644Z,16.33
2018-07-22T05:05:21.242Z,10.63
2018-07-22T05:07:52.203Z,8.83
2018-07-22T05:10:23.030Z,14.60
2018-07-22T05:12:52.697Z,16.00
2018-07-22T05:15:23.677Z,10.80
2018-07-22T05:17:53.572Z,13.63
2018-07-22T05:20:23.922Z,10.07
2018-07-22T05:22:54.356Z,8.20
2018-07-22T05:25:24.531Z,10.13
2018-07-22T05:27:55.543Z,11.37
2018-07-22T05:30:26.602Z,10.77
2018-07-22T05:32:56.971Z,9.57
2018-07-22T05:35:26.511Z,8.60
2018-07-22T05:37:55.913Z,12.97
2018-07-22T05:40:26.060Z,8.10
2018-07-22T05:42:56.645Z,10.40
2018-07-22T05:45:27.749Z,7.50
2018-07-22T05:47:57.617Z,10.27
2018-07-22T05:50:28.057Z,9.07
2018-07-22T05:52:57.460Z,8.37
2018-07-22T05:55:27.788Z,7.53
2018-07-22T05:57:57.273Z,10.03
2018-07-22T06:00:27.701Z,17.90
2018-07-22T06:02:57.131Z,12.40
2018-07-22T06:05:27.546Z,9.70
2018-07-22T06:07:58.818Z,8.30
2018-07-22T06:10:29.093Z,9.60
2018-07-22T06:12:58.789Z,9.07
2018-07-22T06:15:28.916Z,9.53
2018-07-22T06:17:59.386Z,8.63
2018-07-22T06:20:33.981Z,7.90
2018-07-22T06:23:04.213Z,8.00
2018-07-22T06:25:34.799Z,9.70
2018-07-22T06:28:05.058Z,12.23
2018-07-22T06:30:35.622Z,8.67
2018-07-22T06:33:06.693Z,8.70
2018-07-22T06:35:36.571Z,7.80
2018-07-22T06:38:06.756Z,11.60
2018-07-22T06:40:36.451Z,7.17
2018-07-22T06:43:05.870Z,10.60
2018-07-22T06:45:35.197Z,5.77
2018-07-22T06:48:05.696Z,11.17
2018-07-22T06:50:36.052Z,7.03
2018-07-22T06:53:05.556Z,10.27
2018-07-22T06:55:38.773Z,13.00
2018-07-22T06:58:09.436Z,7.53
2018-07-22T07:00:38.852Z,6.33
2018-07-22T07:03:08.295Z,8.97
2018-07-22T07:05:39.263Z,7.57
2018-07-22T07:08:08.864Z,9.60
2018-07-22T07:10:38.542Z,7.90
2018-07-22T07:13:08.839Z,8.23
2018-07-22T07:15:39.200Z,8.47
2018-07-22T07:18:08.832Z,7.00
2018-07-22T07:20:37.689Z,7.17
2018-07-22T07:23:07.688Z,8.33
2018-07-22T07:25:37.104Z,7.40
2018-07-22T07:28:06.220Z,7.83
2018-07-22T07:30:40.751Z,6.40
2018-07-22T07:33:11.937Z,6.13
2018-07-22T07:35:42.651Z,6.33
2018-07-22T07:38:13.193Z,5.63
2018-07-22T07:48:49.451Z,5.90
2018-07-22T07:51:28.207Z,5.10
2018-07-22T07:53:59.327Z,5.60
2018-07-22T07:56:28.756Z,3.80
2018-07-22T07:58:59.061Z,4.90
2018-07-22T08:01:28.590Z,4.57
2018-07-22T08:03:57.332Z,4.30
2018-07-22T08:06:26.243Z,4.07
2018-07-22T08:08:55.799Z,4.67
2018-07-22T08:11:26.083Z,4.63
2018-07-22T08:13:55.627Z,4.27
2018-07-22T08:16:24.924Z,7.20
2018-07-22T08:18:56.438Z,7.53
2018-07-22T08:21:24.096Z,4.13
2018-07-22T08:23:52.932Z,5.60
2018-07-22T08:26:21.704Z,4.80
2018-07-22T08:29:29.331Z,4.57
2018-07-22T08:31:58.509Z,4.80
2018-07-22T08:34:27.750Z,3.20
2018-07-22T08:36:56.571Z,4.97
2018-07-22T08:39:27.004Z,4.50
2018-07-22T08:41:56.095Z,3.90
2018-07-22T08:44:25.202Z,4.27
2018-07-22T08:46:54.386Z,6.47
2018-07-22T08:49:23.086Z,4.10
2018-07-22T08:51:51.897Z,4.63
2018-07-22T08:54:22.637Z,5.30
2018-07-22T08:56:51.340Z,4.37
2018-07-22T08:59:20.419Z,3.87
2018-07-22T09:01:49.215Z,3.97
2018-07-22T09:04:18.327Z,5.43
2018-07-22T09:06:47.010Z,4.50
2018-07-22T09:09:15.762Z,3.77
2018-07-22T09:11:44.501Z,3.30
2018-07-22T09:14:13.286Z,4.33
2018-07-22T09:16:42.287Z,4.53
2018-07-22T09:19:10.958Z,6.03
2018-07-22T09:21:39.676Z,2.80
2018-07-22T09:24:08.749Z,4.37
2018-07-22T09:26:37.503Z,5.20
2018-07-22T09:29:06.950Z,4.40
2018-07-22T09:31:36.307Z,3.27
2018-07-22T09:34:05.311Z,2.90
2018-07-22T09:36:34.063Z,2.97
2018-07-22T09:39:04.027Z,2.67
2018-07-22T09:41:32.599Z,3.00
2018-07-22T09:44:01.219Z,3.77
2018-07-22T09:46:30.045Z,4.37
2018-07-22T09:48:58.959Z,2.63
2018-07-22T09:51:28.447Z,2.40
2018-07-22T09:53:58.205Z,2.43
2018-07-22T09:56:27.170Z,3.20
2018-07-22T09:58:55.852Z,4.03
2018-07-22T10:01:24.679Z,4.27
2018-07-22T10:03:53.338Z,4.20
2018-07-22T10:06:22.014Z,7.27
2018-07-22T10:08:50.719Z,2.63
2018-07-22T10:11:20.482Z,3.20
2018-07-22T10:13:49.143Z,3.03
2018-07-22T10:16:17.847Z,2.63
2018-07-22T10:18:46.532Z,2.80
2018-07-22T10:21:15.287Z,2.43
2018-07-22T10:23:43.957Z,4.30
2018-07-22T10:26:12.658Z,2.33
2018-07-22T10:28:41.299Z,2.97
2018-07-22T10:31:10.393Z,2.47
2018-07-22T10:33:39.059Z,2.93
2018-07-22T10:36:08.227Z,4.93
2018-07-22T10:38:36.839Z,2.73
2018-07-22T10:41:05.443Z,2.70
2018-07-22T10:43:34.090Z,2.70
2018-07-22T10:46:02.778Z,4.23
2018-07-22T10:48:31.492Z,3.73
2018-07-22T10:51:00.521Z,3.17
2018-07-22T10:53:29.326Z,2.20
2018-07-22T10:55:58.160Z,3.67
2018-07-22T10:58:26.861Z,2.37
2018-07-22T11:00:55.506Z,2.50
2018-07-22T11:03:24.184Z,2.40
2018-07-22T11:05:53.040Z,2.53
2018-07-22T11:08:21.650Z,7.13
2018-07-22T11:10:50.639Z,3.63
2018-07-22T11:13:19.602Z,3.53
2018-07-22T11:15:48.227Z,3.50
2018-07-22T11:18:16.952Z,7.47
2018-07-22T11:20:45.635Z,2.67
2018-07-22T11:23:14.542Z,2.80
2018-07-22T11:25:43.243Z,3.27
2018-07-22T11:28:12.262Z,3.10
2018-07-22T11:30:41.304Z,3.40
2018-07-22T11:33:10.135Z,3.17
2018-07-22T11:35:38.777Z,5.63
2018-07-22T11:38:07.628Z,3.67
2018-07-22T11:40:36.271Z,3.20
2018-07-22T11:43:04.894Z,3.40
2018-07-22T11:45:33.506Z,3.30
2018-07-22T11:48:02.138Z,3.07
2018-07-22T11:50:30.810Z,3.77
2018-07-22T11:52:59.475Z,3.10
2018-07-22T11:55:28.111Z,4.00
2018-07-22T11:57:56.727Z,3.07
2018-07-22T12:00:25.369Z,4.17
2018-07-22T12:02:54.020Z,3.20
2018-07-22T12:05:22.714Z,4.00
2018-07-22T12:07:51.324Z,3.20
2018-07-22T12:10:20.047Z,3.50
2018-07-22T12:12:48.659Z,2.97
2018-07-22T12:15:17.312Z,3.93
2018-07-22T12:17:45.994Z,3.13
2018-07-22T12:20:14.880Z,4.27
2018-07-22T12:22:43.545Z,3.00
2018-07-22T12:25:12.219Z,2.83
2018-07-22T12:27:40.900Z,3.70
2018-07-22T12:30:10.126Z,4.00
2018-07-22T12:32:39.603Z,3.33
2018-07-22T12:35:08.230Z,3.47
2018-07-22T12:37:36.854Z,2.43
2018-07-22T12:40:05.661Z,3.00
2018-07-22T12:42:34.264Z,2.87
2018-07-22T12:45:03.278Z,4.73
2018-07-22T12:47:31.860Z,2.60
2018-07-22T12:50:00.516Z,6.37
2018-07-22T12:52:29.154Z,4.23
2018-07-22T12:54:57.807Z,4.70
2018-07-22T12:57:26.402Z,3.87
2018-07-22T12:59:55.048Z,2.90
2018-07-22T13:02:23.762Z,3.40
2018-07-22T13:04:52.375Z,4.33
2018-07-22T13:07:21.031Z,3.00
2018-07-22T13:09:49.950Z,2.87
2018-07-22T13:12:18.968Z,4.03
2018-07-22T13:14:47.637Z,3.47
2018-07-22T13:17:16.266Z,3.13
2018-07-22T13:19:44.890Z,4.37
2018-07-22T13:22:14.046Z,4.23
2018-07-22T13:24:42.631Z,2.33
2018-07-22T13:27:11.634Z,2.27
2018-07-22T13:29:40.235Z,2.50
2018-07-22T13:32:08.915Z,2.00
2018-07-22T13:34:37.608Z,1.50
2018-07-22T13:37:06.635Z,2.43
2018-07-22T13:39:35.295Z,2.20
2018-07-22T13:42:03.883Z,2.03
2018-07-22T13:44:32.707Z,4.63
2018-07-22T13:47:01.436Z,1.93
2018-07-22T13:49:30.455Z,3.00
2018-07-22T13:51:59.101Z,2.50
2018-07-22T13:54:27.998Z,1.77
2018-07-22T13:56:56.690Z,2.50
2018-07-22T13:59:25.290Z,2.53
2018-07-22T14:01:53.934Z,2.47
2018-07-22T14:04:22.579Z,3.50
2018-07-22T14:06:51.588Z,2.00
2018-07-22T14:09:20.212Z,3.30
2018-07-22T14:11:49.094Z,1.83
2018-07-22T14:14:17.729Z,2.30
2018-07-22T14:16:46.454Z,4.43
2018-07-22T14:19:15.080Z,3.00
2018-07-22T14:21:43.995Z,6.40
2018-07-22T14:24:13.357Z,2.27
2018-07-22T14:26:42.748Z,2.90
2018-07-22T14:29:11.556Z,3.00
2018-07-22T14:31:40.311Z,3.00
2018-07-22T14:34:09.296Z,4.03
2018-07-22T14:36:38.060Z,3.70
2018-07-22T14:39:09.254Z,2.93
2018-07-22T14:41:37.897Z,2.80
2018-07-22T14:44:06.679Z,3.73
2018-07-22T14:46:35.422Z,2.50
2018-07-22T14:49:04.167Z,4.47
2018-07-22T14:51:32.846Z,2.90
2018-07-22T14:54:01.768Z,3.50
2018-07-22T14:56:30.450Z,2.57
2018-07-22T14:58:59.057Z,4.10
2018-07-22T15:01:27.723Z,3.90
2018-07-22T15:03:56.331Z,8.30
2018-07-22T15:06:24.957Z,2.07
2018-07-22T15:08:53.606Z,2.30
2018-07-22T15:11:22.398Z,2.73
2018-07-22T15:13:52.110Z,2.10
2018-07-22T15:16:22.413Z,2.30
2018-07-22T15:18:51.451Z,2.50
2018-07-22T15:21:20.065Z,3.03
2018-07-22T15:23:48.803Z,3.43
2018-07-22T15:26:17.581Z,4.90
2018-07-22T15:28:46.206Z,4.80
2018-07-22T15:31:16.469Z,6.13
2018-07-22T15:33:46.262Z,6.33
2018-07-22T15:36:16.571Z,7.23
2018-07-22T15:38:45.519Z,8.80
2018-07-22T15:41:15.254Z,8.80
2018-07-22T15:43:43.958Z,9.57
2018-07-22T15:46:12.590Z,9.80
2018-07-22T15:48:41.209Z,10.27
2018-07-22T15:51:09.915Z,9.87
2018-07-22T15:53:38.589Z,10.00
2018-07-22T15:56:08.635Z,9.00
2018-07-22T15:58:38.118Z,9.80
2018-07-22T16:01:06.919Z,10.83
2018-07-22T16:03:35.797Z,10.20
2018-07-22T16:06:04.554Z,10.17
2018-07-22T16:08:33.291Z,10.07
2018-07-22T16:11:01.919Z,10.97
2018-07-22T16:13:31.039Z,9.23
2018-07-22T16:15:59.789Z,10.47
2018-07-22T16:18:28.478Z,12.50
2018-07-22T16:20:57.205Z,9.67
2018-07-22T16:23:26.229Z,9.70
2018-07-22T16:25:54.905Z,9.57
2018-07-22T16:28:23.531Z,10.47
2018-07-22T16:30:52.231Z,8.50
2018-07-22T16:33:20.931Z,9.40
2018-07-22T16:35:49.523Z,9.80
2018-07-22T16:38:18.150Z,8.20
2018-07-22T16:40:46.725Z,8.53
2018-07-22T16:43:15.730Z,8.03
2018-07-22T16:45:44.602Z,8.23
2018-07-22T16:48:15.376Z,7.70
2018-07-22T16:50:45.166Z,6.70
2018-07-22T16:53:14.743Z,7.60
2018-07-22T16:55:44.378Z,7.70
2018-07-22T16:58:13.167Z,6.80
2018-07-22T17:00:41.923Z,7.03
2018-07-22T17:03:10.539Z,7.37
2018-07-22T17:05:39.153Z,7.33
2018-07-22T17:08:07.783Z,9.20
2018-07-22T17:10:36.384Z,12.47
2018-07-22T17:13:05.000Z,7.90
2018-07-22T17:15:33.654Z,6.50
2018-07-22T17:18:02.260Z,6.80
2018-07-22T17:20:30.840Z,8.00
2018-07-22T17:22:59.431Z,6.40
2018-07-22T17:25:28.090Z,7.27
2018-07-22T17:27:56.748Z,9.20
2018-07-22T17:30:25.394Z,6.50
2018-07-22T17:32:54.007Z,7.77
2018-07-22T17:35:22.671Z,7.23
2018-07-22T17:37:51.318Z,8.20
2018-07-22T17:40:19.979Z,8.90
2018-07-22T17:42:48.642Z,7.60
2018-07-22T17:45:17.502Z,7.47
2018-07-22T17:47:46.150Z,8.70
2018-07-22T17:50:15.378Z,8.20
2018-07-22T17:52:43.988Z,7.13
2018-07-22T17:55:12.574Z,7.30
2018-07-22T17:57:41.195Z,11.50
2018-07-22T18:00:10.133Z,12.10
2018-07-22T18:02:40.140Z,6.93
2018-07-22T18:05:08.782Z,6.97
2018-07-22T18:07:37.394Z,7.60
2018-07-22T18:10:06.086Z,7.23
2018-07-22T18:12:34.734Z,7.70
2018-07-22T18:15:03.400Z,12.13
2018-07-22T18:17:32.038Z,7.20
2018-07-22T18:20:00.793Z,6.60
2018-07-22T18:22:29.426Z,7.27
2018-07-22T18:24:58.047Z,7.70
2018-07-22T18:27:26.651Z,10.40
2018-07-22T18:29:55.329Z,7.60
2018-07-22T18:32:24.002Z,6.73
2018-07-22T18:34:53.559Z,7.20
2018-07-22T18:37:22.235Z,11.10
2018-07-22T18:39:51.457Z,7.50
2018-07-22T18:42:20.732Z,7.30
2018-07-22T18:44:49.631Z,8.20
2018-07-22T18:47:18.463Z,7.90
2018-07-22T18:49:47.184Z,7.50
2018-07-22T18:52:16.051Z,8.37
2018-07-22T18:54:44.721Z,12.70
2018-07-22T18:57:13.550Z,7.90
2018-07-22T18:59:42.339Z,8.73
2018-07-22T19:02:11.307Z,9.73
2018-07-22T19:04:40.159Z,9.40
2018-07-22T19:07:08.910Z,9.33
2018-07-22T19:09:37.679Z,8.47
2018-07-22T19:12:07.619Z,8.30
2018-07-22T19:14:36.344Z,10.40
2018-07-22T19:17:04.998Z,10.27
2018-07-22T19:19:33.701Z,8.97
2018-07-22T19:22:02.699Z,9.83
2018-07-22T19:24:31.387Z,9.63
2018-07-22T19:27:00.113Z,9.17
2018-07-22T19:29:29.570Z,8.20
2018-07-22T19:31:58.326Z,8.50
2018-07-22T19:34:27.735Z,10.57
2018-07-22T19:36:56.737Z,8.20
2018-07-22T19:39:25.404Z,8.90
2018-07-22T19:41:54.197Z,8.87
2018-07-22T19:44:24.911Z,8.30
2018-07-22T19:46:54.443Z,8.30
2018-07-22T19:49:23.217Z,9.03
2018-07-22T19:51:52.255Z,9.13
2018-07-22T19:54:21.812Z,15.43
2018-07-22T19:56:50.588Z,9.80
2018-07-22T19:59:19.403Z,9.43
2018-07-22T20:01:48.232Z,10.40
2018-07-22T20:04:16.930Z,9.47
2018-07-22T20:06:45.720Z,8.93
2018-07-22T20:09:14.983Z,8.37
2018-07-22T20:11:44.013Z,9.63
2018-07-22T20:14:12.790Z,9.90
2018-07-22T20:16:41.498Z,12.13
2018-07-22T20:19:10.174Z,9.60
2018-07-22T20:21:38.839Z,15.50
2018-07-22T20:24:07.624Z,10.37
2018-07-22T20:26:36.590Z,9.60
2018-07-22T20:29:05.363Z,10.30
2018-07-22T20:31:34.116Z,10.17
2018-07-22T20:34:04.056Z,11.30
2018-07-22T20:36:33.681Z,10.27
2018-07-22T20:39:02.980Z,11.03
2018-07-22T20:41:34.278Z,10.20
2018-07-22T20:44:03.762Z,10.63
2018-07-22T20:46:34.887Z,11.07
2018-07-22T20:49:04.589Z,10.80
2018-07-22T20:51:33.552Z,16.33
2018-07-22T20:54:02.704Z,11.37
2018-07-22T20:56:31.454Z,12.07
2018-07-22T20:59:00.143Z,12.53
2018-07-22T21:01:29.858Z,11.73
2018-07-22T21:03:58.722Z,10.53
2018-07-22T21:06:28.496Z,10.47
2018-07-22T21:09:01.528Z,12.70
2018-07-22T21:11:41.294Z,10.03
2018-07-22T21:14:10.204Z,10.80
2018-07-22T21:16:39.026Z,10.83
2018-07-22T21:19:24.368Z,10.57
2018-07-22T21:21:53.170Z,12.13
2018-07-22T21:24:21.939Z,10.40
2018-07-22T21:26:50.813Z,11.67
2018-07-22T21:29:19.792Z,12.40
2018-07-22T21:31:49.573Z,11.07
2018-07-22T21:34:20.016Z,12.63
2018-07-22T21:36:50.254Z,11.90
2018-07-22T21:39:20.304Z,11.53
2018-07-22T21:41:49.094Z,11.57
2018-07-22T21:44:18.200Z,11.73
2018-07-22T21:46:47.559Z,12.03
2018-07-22T21:49:17.069Z,11.53
2018-07-22T21:51:46.373Z,13.60
2018-07-22T21:54:15.244Z,15.60
2018-07-22T21:56:45.684Z,12.67
2018-07-22T21:59:15.189Z,12.23
